TimeEDT,TemperatureF,Dew PointF,Humidity,Sea Level PressureIn,VisibilityMPH,Wind Direction,Wind SpeedMPH,Gust SpeedMPH,PrecipitationIn,Events,Conditions,WindDirDegrees,DateUTC
12:53 AM,71.6,62.6,73,30.09,10.0,NNE,5.8,-,N/A,,Clear,30,2011-10-06 04:53:00
1:53 AM,71.1,62.1,73,30.09,10.0,NNE,5.8,-,N/A,,Partly Cloudy,30,2011-10-06 05:53:00
2:53 AM,71.1,62.1,73,30.08,10.0,NE,5.8,-,N/A,,Scattered Clouds,40,2011-10-06 06:53:00
3:53 AM,70.0,62.1,76,30.07,10.0,NE,5.8,-,N/A,,Partly Cloudy,40,2011-10-06 07:53:00
4:53 AM,70.0,62.1,76,30.06,10.0,NE,3.5,-,N/A,,Partly Cloudy,40,2011-10-06 08:53:00
5:53 AM,70.0,63.0,78,30.07,10.0,NNE,5.8,-,N/A,,Partly Cloudy,30,2011-10-06 09:53:00
6:53 AM,69.1,63.0,81,30.09,10.0,NNE,4.6,-,N/A,,Partly Cloudy,30,2011-10-06 10:53:00
7:53 AM,70.0,63.0,78,30.10,10.0,NNE,6.9,-,N/A,,Partly Cloudy,30,2011-10-06 11:53:00
8:53 AM,73.0,64.9,76,30.11,10.0,NNE,8.1,-,N/A,,Scattered Clouds,30,2011-10-06 12:53:00
9:53 AM,77.0,64.9,66,30.12,10.0,North,8.1,-,N/A,,Clear,10,2011-10-06 13:53:00
10:53 AM,80.6,64.4,58,30.11,10.0,Variable,6.9,-,N/A,,Partly Cloudy,0,2011-10-06 14:53:00
11:53 AM,82.9,60.1,46,30.11,10.0,NE,6.9,16.1,N/A,,Scattered Clouds,50,2011-10-06 15:53:00
12:53 PM,84.0,61.0,46,30.09,10.0,NE,8.1,-,N/A,,Scattered Clouds,40,2011-10-06 16:53:00
1:53 PM,84.2,59.0,42,30.07,10.0,NE,8.1,16.1,N/A,,Scattered Clouds,50,2011-10-06 17:53:00
2:53 PM,86.0,60.1,41,30.04,10.0,NE,9.2,-,N/A,,Mostly Cloudy,40,2011-10-06 18:53:00
3:53 PM,84.9,62.1,46,30.04,10.0,ENE,9.2,18.4,N/A,,Scattered Clouds,70,2011-10-06 19:53:00
4:53 PM,82.0,64.0,54,30.04,10.0,NE,9.2,-,N/A,,Mostly Cloudy,40,2011-10-06 20:53:00
5:53 PM,82.9,64.0,53,30.04,10.0,NE,8.1,-,N/A,,Mostly Cloudy,50,2011-10-06 21:53:00
6:53 PM,81.0,64.9,58,30.05,10.0,NE,4.6,-,N/A,,Mostly Cloudy,50,2011-10-06 22:53:00
7:53 PM,80.1,64.0,58,30.07,10.0,ENE,9.2,-,N/A,,Mostly Cloudy,70,2011-10-06 23:53:00
8:53 PM,79.0,64.0,60,30.09,10.0,ENE,6.9,-,N/A,,Scattered Clouds,70,2011-10-07 00:53:00
9:53 PM,77.0,64.9,66,30.11,10.0,ENE,8.1,-,N/A,,Scattered Clouds,60,2011-10-07 01:53:00
10:53 PM,75.9,64.9,69,30.11,10.0,NE,4.6,-,N/A,,Partly Cloudy,50,2011-10-07 02:53:00
11:53 PM,75.0,64.9,71,30.12,10.0,NE,5.8,-,N/A,,Partly Cloudy,40,2011-10-07 03:53:00